Time;durP1;ratioP1;P1;durP2;ratioP2;P2;SDS_P1;SDS_P2;PMS_P1;PMS_P2;Temp;Humidity;BMP_temperature;BMP_pressure;BME280_temperature;BME280_humidity;BME280_pressure;Samples;Min_cycle;Max_cycle;Signal;HPM_P1;HPM_P2
2021/07/05 00:02:08;;;;;;;29.17;16.77;;;16.70;99.90;;;;;;4986907;28;20233;-91
2021/07/05 00:04:34;;;;;;;33.00;17.70;;;16.70;99.90;;;;;;4970379;28;20178;-93
2021/07/05 00:07:00;;;;;;;24.33;16.27;;;16.70;99.90;;;;;;4984764;28;20237;-92
2021/07/05 00:09:26;;;;;;;32.40;17.17;;;17.20;99.90;;;;;;4983912;28;20195;-93
2021/07/05 00:11:52;;;;;;;36.03;17.13;;;;;;;;;;4981433;28;20202;-93
2021/07/05 00:14:18;;;;;;;32.10;16.92;;;16.70;99.90;;;;;;4960399;28;20182;-93
2021/07/05 00:16:43;;;;;;;26.85;16.45;;;16.70;99.90;;;;;;4976344;28;20241;-93
2021/07/05 00:19:09;;;;;;;32.47;17.17;;;16.70;99.90;;;;;;4943717;28;20202;-93
2021/07/05 00:21:35;;;;;;;27.85;16.40;;;;;;;;;;4944404;28;20285;-93
2021/07/05 00:24:01;;;;;;;34.63;16.90;;;16.70;99.90;;;;;;4960376;28;20666;-92
2021/07/05 00:26:27;;;;;;;28.17;16.02;;;16.70;99.90;;;;;;4976328;28;20187;-91
2021/07/05 00:28:53;;;;;;;28.63;15.88;;;;;;;;;;4960485;28;20187;-93
2021/07/05 00:31:18;;;;;;;22.95;16.05;;;16.70;99.90;;;;;;4959854;28;20586;-93
2021/07/05 00:33:45;;;;;;;33.97;16.05;;;16.70;99.90;;;;;;4976430;28;20238;-93
2021/07/05 00:36:11;;;;;;;27.75;16.02;;;16.70;99.90;;;;;;4959689;28;20268;-93
2021/07/05 00:38:38;;;;;;;38.95;16.98;;;;;;;;;;4977389;28;20644;-92
2021/07/05 00:41:04;;;;;;;30.38;14.93;;;16.70;99.90;;;;;;4977918;28;20612;-93
2021/07/05 00:43:30;;;;;;;31.95;15.50;;;16.50;99.90;;;;;;4977220;28;20181;-92
2021/07/05 00:45:57;;;;;;;29.80;15.50;;;16.80;99.90;;;;;;4944869;28;20228;-93
2021/07/05 00:48:23;;;;;;;26.63;16.17;;;16.90;99.90;;;;;;4976479;28;20194;-92
2021/07/05 00:50:49;;;;;;;31.42;14.75;;;16.80;99.90;;;;;;4977946;28;20277;-93
2021/07/05 00:53:16;;;;;;;28.95;15.27;;;16.80;99.90;;;;;;4975153;28;20214;-93
2021/07/05 00:55:42;;;;;;;28.30;15.40;;;16.80;99.90;;;;;;4975095;28;20206;-93
2021/07/05 00:58:08;;;;;;;25.27;14.90;;;16.70;99.90;;;;;;4974871;28;20185;-92
2021/07/05 01:00:36;;;;;;;31.42;16.70;;;16.70;99.90;;;;;;4959538;28;20564;-93
2021/07/05 01:03:03;;;;;;;25.85;14.82;;;16.70;99.90;;;;;;4974587;28;20233;-92
2021/07/05 01:05:29;;;;;;;29.38;15.95;;;16.70;99.90;;;;;;4976463;28;20213;-92
2021/07/05 01:07:55;;;;;;;26.67;16.38;;;16.70;99.90;;;;;;4975896;28;20179;-93
2021/07/05 01:10:22;;;;;;;27.92;15.90;;;16.70;99.90;;;;;;4974673;28;20190;-93
2021/07/05 01:12:49;;;;;;;34.30;16.20;;;16.70;99.90;;;;;;4974705;28;20175;-93
2021/07/05 01:15:21;;;;;;;27.88;15.20;;;16.70;99.90;;;;;;4974543;28;20178;-93
2021/07/05 01:17:48;;;;;;;26.58;15.30;;;16.70;99.90;;;;;;4974767;28;20218;-92
2021/07/05 01:20:17;;;;;;;31.38;16.70;;;16.70;99.90;;;;;;4974178;28;20233;-92
2021/07/05 01:22:43;;;;;;;30.65;15.85;;;16.70;99.90;;;;;;4975924;28;20621;-92
2021/07/05 01:25:13;;;;;;;30.70;15.88;;;16.80;99.90;;;;;;4958097;28;20185;-93
2021/07/05 01:27:38;;;;;;;27.02;15.30;;;16.80;99.90;;;;;;4974497;28;20175;-92
2021/07/05 01:30:06;;;;;;;27.45;14.90;;;16.80;99.90;;;;;;4973960;28;20343;-91
2021/07/05 01:32:31;;;;;;;28.77;16.70;;;16.80;99.90;;;;;;4974860;28;20202;-92
2021/07/05 01:34:57;;;;;;;25.40;15.77;;;16.80;99.90;;;;;;4975544;28;20178;-92
2021/07/05 01:37:23;;;;;;;36.60;15.93;;;16.80;99.90;;;;;;4973818;28;20246;-92
2021/07/05 01:39:49;;;;;;;26.67;14.65;;;16.80;99.90;;;;;;4974596;28;20632;-92
2021/07/05 01:42:15;;;;;;;28.65;17.52;;;;;;;;;;4973767;28;20193;-93
2021/07/05 01:44:40;;;;;;;29.00;15.45;;;16.80;99.90;;;;;;4975534;28;20185;-93
2021/07/05 01:47:06;;;;;;;26.77;16.17;;;16.80;99.90;;;;;;4973737;28;20555;-93
2021/07/05 01:49:32;;;;;;;31.63;16.95;;;16.80;99.90;;;;;;4975734;28;20322;-93
2021/07/05 01:51:58;;;;;;;30.90;17.02;;;16.80;99.90;;;;;;4974410;28;20185;-93
2021/07/05 01:54:24;;;;;;;27.98;16.75;;;16.80;99.90;;;;;;4958159;28;20182;-93
2021/07/05 01:56:50;;;;;;;29.00;16.67;;;;;;;;;;4974035;28;20214;-93
2021/07/05 01:59:15;;;;;;;33.00;17.70;;;16.80;99.90;;;;;;4975733;28;20205;-94
2021/07/05 02:01:42;;;;;;;32.25;17.00;;;;;;;;;;4974039;28;20616;-93
2021/07/05 02:04:08;;;;;;;36.13;17.50;;;16.90;99.90;;;;;;4973708;28;20179;-92
2021/07/05 02:06:35;;;;;;;40.42;18.40;;;16.80;99.90;;;;;;4973716;28;20651;-91
2021/07/05 02:09:04;;;;;;;35.38;18.77;;;16.90;99.90;;;;;;4941866;28;20186;-92
2021/07/05 02:11:30;;;;;;;38.08;19.13;;;16.90;99.90;;;;;;4974691;28;20191;-92
2021/07/05 02:13:56;;;;;;;35.78;18.90;;;14.50;99.90;;;;;;4973684;28;20183;-92
2021/07/05 02:16:22;;;;;;;46.13;19.88;;;;;;;;;;4973347;28;20221;-92
2021/07/05 02:18:47;;;;;;;40.95;19.23;;;16.80;99.90;;;;;;4974956;28;20518;-92
2021/07/05 02:21:13;;;;;;;45.88;20.60;;;16.90;99.90;;;;;;4973754;28;20189;-92
2021/07/05 02:23:39;;;;;;;42.58;21.00;;;;;;;;;;4957498;28;20657;-93
2021/07/05 02:26:07;;;;;;;49.60;22.40;;;16.90;99.90;;;;;;4973738;28;20186;-92
2021/07/05 02:28:35;;;;;;;52.80;21.70;;;16.80;99.90;;;;;;4973390;28;20409;-93
2021/07/05 02:31:02;;;;;;;54.40;21.63;;;16.80;99.90;;;;;;4974778;28;20180;-93
2021/07/05 02:33:34;;;;;;;50.60;23.92;;;16.80;99.90;;;;;;4981229;28;20183;-92
2021/07/05 02:36:02;;;;;;;51.78;21.30;;;16.80;99.90;;;;;;4976053;28;20242;-91
2021/07/05 02:38:28;;;;;;;52.38;23.55;;;16.80;99.90;;;;;;4977926;28;20201;-93
2021/07/05 02:40:56;;;;;;;54.83;23.48;;;16.80;99.90;;;;;;4977805;28;20209;-93
2021/07/05 02:43:22;;;;;;;61.15;23.02;;;16.80;99.90;;;;;;4979063;28;20178;-94
2021/07/05 02:45:51;;;;;;;52.42;22.63;;;16.80;99.90;;;;;;4960053;28;20281;-93
2021/07/05 02:48:20;;;;;;;53.33;23.98;;;16.80;99.90;;;;;;4973380;28;20651;-92
2021/07/05 02:50:50;;;;;;;61.25;23.80;;;16.80;99.90;;;;;;4973876;28;20719;-92
2021/07/05 02:53:16;;;;;;;65.35;24.17;;;16.80;99.90;;;;;;4974580;28;20163;-92
2021/07/05 02:55:42;;;;;;;55.88;22.70;;;;;;;;;;4973676;28;20565;-92
2021/07/05 02:58:08;;;;;;;51.58;23.75;;;16.80;99.90;;;;;;4974967;28;20548;-91
2021/07/05 03:00:37;;;;;;;59.63;24.27;;;16.80;99.90;;;;;;4974467;28;20282;-93
2021/07/05 03:03:03;;;;;;;66.75;22.55;;;16.80;99.90;;;;;;4973663;28;20202;-92
2021/07/05 03:05:31;;;;;;;56.70;23.38;;;16.80;99.90;;;;;;4974585;28;20183;-92
2021/07/05 03:07:58;;;;;;;68.18;23.15;;;16.70;99.90;;;;;;4957672;28;20187;-91
2021/07/05 03:10:35;;;;;;;62.65;23.42;;;16.70;99.90;;;;;;4973225;28;20277;-90
2021/07/05 03:13:04;;;;;;;60.25;22.58;;;16.70;99.90;;;;;;4973115;28;20269;-91
2021/07/05 03:15:30;;;;;;;62.47;23.30;;;16.70;99.90;;;;;;4973803;28;20713;-90
2021/07/05 03:17:56;;;;;;;60.75;23.77;;;16.80;99.90;;;;;;4977976;28;20182;-91
2021/07/05 03:20:28;;;;;;;60.17;23.83;;;16.80;99.90;;;;;;4977900;28;20186;-90
2021/07/05 03:22:55;;;;;;;62.80;23.90;;;16.80;99.90;;;;;;4977146;28;20747;-92
2021/07/05 03:25:22;;;;;;;54.92;22.75;;;16.90;99.90;;;;;;4961130;28;20314;-89
2021/07/05 03:27:49;;;;;;;52.65;22.13;;;16.80;99.90;;;;;;4977962;28;20179;-91
2021/07/05 03:30:17;;;;;;;56.05;22.80;;;16.80;99.90;;;;;;4977651;28;20183;-89
2021/07/05 03:32:43;;;;;;;50.42;22.60;;;16.90;99.90;;;;;;4978011;28;20171;-90
2021/07/05 03:35:11;;;;;;;43.28;21.67;;;16.80;99.90;;;;;;4978100;28;20209;-89
2021/07/05 03:37:38;;;;;;;45.35;21.38;;;16.80;99.90;;;;;;4975969;28;20234;-90
2021/07/05 03:40:06;;;;;;;45.22;21.95;;;16.90;99.90;;;;;;4977846;28;20205;-89
2021/07/05 03:42:32;;;;;;;40.65;20.55;;;16.80;99.90;;;;;;4976429;28;20182;-90
2021/07/05 03:44:58;;;;;;;44.90;22.05;;;16.80;99.90;;;;;;4978049;28;20206;-90
2021/07/05 03:47:24;;;;;;;46.53;21.10;;;16.80;99.90;;;;;;4979143;28;20190;-90
2021/07/05 03:49:49;;;;;;;41.90;18.98;;;16.80;99.90;;;;;;4978085;28;20182;-90
2021/07/05 03:52:16;;;;;;;54.33;20.23;;;16.90;99.90;;;;;;4961180;28;20318;-91
2021/07/05 03:54:42;;;;;;;56.00;19.13;;;16.90;99.90;;;;;;4976770;28;20202;-90
2021/07/05 03:57:21;;;;;;;45.35;19.35;;;16.90;99.90;;;;;;4960258;28;20591;-89
2021/07/05 03:59:54;;;;;;;36.53;18.05;;;16.90;99.90;;;;;;4976573;28;20253;-90
2021/07/05 04:02:20;;;;;;;55.22;16.38;;;16.80;99.90;;;;;;4977615;28;20273;-89
2021/07/05 04:04:47;;;;;;;35.63;16.15;;;16.80;99.90;;;;;;4977643;28;20182;-92
2021/07/05 04:07:13;;;;;;;38.40;15.52;;;16.80;99.90;;;;;;4978792;28;20210;-91
2021/07/05 04:09:42;;;;;;;32.22;16.48;;;16.80;99.90;;;;;;4976667;28;20210;-91
2021/07/05 04:12:10;;;;;;;29.77;15.88;;;16.80;99.90;;;;;;4978338;28;20178;-90
2021/07/05 04:14:37;;;;;;;26.50;14.85;;;16.80;99.90;;;;;;4976202;28;20183;-90
2021/07/05 04:17:02;;;;;;;33.75;16.17;;;16.90;99.90;;;;;;4977749;28;20241;-90
2021/07/05 04:19:28;;;;;;;50.05;18.60;;;16.90;99.90;;;;;;4977736;28;20636;-89
2021/07/05 04:21:54;;;;;;;43.83;18.48;;;16.80;99.90;;;;;;4977785;28;20186;-91
2021/07/05 04:24:19;;;;;;;44.40;17.23;;;16.80;99.90;;;;;;4977654;28;20174;-90
2021/07/05 04:26:46;;;;;;;54.78;18.55;;;16.70;99.90;;;;;;4977423;28;20206;-90
2021/07/05 04:29:12;;;;;;;46.75;18.17;;;16.70;99.90;;;;;;4976752;28;20186;-88
2021/07/05 04:31:38;;;;;;;41.40;19.88;;;16.80;99.90;;;;;;4976594;28;20182;-89
2021/07/05 04:34:03;;;;;;;46.03;21.23;;;16.80;99.90;;;;;;4976034;28;20697;-89
2021/07/05 04:36:29;;;;;;;47.72;22.00;;;16.80;99.90;;;;;;4975761;28;20238;-90
2021/07/05 04:38:55;;;;;;;48.88;21.58;;;16.80;99.90;;;;;;4976036;28;20174;-89
2021/07/05 04:41:20;;;;;;;54.28;21.17;;;16.90;99.90;;;;;;4958961;28;20652;-89
2021/07/05 04:43:46;;;;;;;38.10;18.58;;;16.90;99.90;;;;;;4942401;28;20182;-89
2021/07/05 04:46:12;;;;;;;39.83;19.33;;;16.90;99.90;;;;;;4974701;28;20193;-89
2021/07/05 04:48:37;;;;;;;37.42;18.42;;;16.90;99.90;;;;;;4974501;28;20179;-89
2021/07/05 04:51:04;;;;;;;45.08;18.48;;;16.90;99.90;;;;;;4975445;28;20541;-89
2021/07/05 04:53:30;;;;;;;43.22;18.92;;;16.90;99.90;;;;;;4974517;28;20261;-90
2021/07/05 04:55:58;;;;;;;49.90;19.40;;;16.90;99.90;;;;;;4958443;28;20207;-89
2021/07/05 04:58:24;;;;;;;36.05;19.58;;;16.80;99.90;;;;;;4974483;28;20239;-87
2021/07/05 05:00:50;;;;;;;35.10;17.52;;;16.80;99.90;;;;;;4958437;28;20187;-89
2021/07/05 05:03:16;;;;;;;34.13;17.92;;;16.80;99.90;;;;;;4974599;28;20183;-89
2021/07/05 05:05:42;;;;;;;30.98;17.25;;;16.80;99.90;;;;;;4974983;28;20694;-88
2021/07/05 05:08:08;;;;;;;33.05;17.52;;;16.80;99.90;;;;;;4958386;28;20564;-91
2021/07/05 05:10:35;;;;;;;29.80;15.98;;;16.80;99.90;;;;;;4973768;28;20281;-88
2021/07/05 05:13:01;;;;;;;29.20;16.50;;;16.90;99.90;;;;;;4958410;28;20193;-88
2021/07/05 05:15:27;;;;;;;25.75;16.30;;;16.90;99.90;;;;;;4973656;28;20330;-90
2021/07/05 05:17:53;;;;;;;26.85;15.13;;;16.90;99.90;;;;;;4975405;28;20178;-89
2021/07/05 05:20:19;;;;;;;39.03;19.88;;;16.90;99.90;;;;;;4974303;28;20183;-89
2021/07/05 05:22:46;;;;;;;36.83;20.20;;;16.90;99.90;;;;;;4975044;28;20181;-91
2021/07/05 05:25:12;;;;;;;34.78;18.25;;;16.90;99.90;;;;;;4975281;28;20640;-91
2021/07/05 05:27:38;;;;;;;37.33;19.20;;;17.00;99.90;;;;;;4974810;28;20640;-88
2021/07/05 05:30:06;;;;;;;42.50;20.88;;;17.10;99.90;;;;;;4975188;28;20666;-87
2021/07/05 05:32:31;;;;;;;45.22;21.45;;;17.10;99.90;;;;;;4974123;28;20210;-88
2021/07/05 05:34:57;;;;;;;45.22;22.15;;;17.20;99.90;;;;;;4973754;28;20205;-89
2021/07/05 05:37:23;;;;;;;56.95;25.52;;;17.20;99.90;;;;;;4974085;28;20750;-88
2021/07/05 05:39:49;;;;;;;53.22;25.50;;;17.20;99.90;;;;;;4974030;28;20645;-89
2021/07/05 05:42:14;;;;;;;62.20;29.20;;;17.30;99.90;;;;;;4974881;28;20178;-89
2021/07/05 05:44:44;;;;;;;55.30;26.38;;;17.40;99.90;;;;;;4973779;28;20175;-91
2021/07/05 05:47:10;;;;;;;62.90;28.42;;;17.40;99.90;;;;;;4974281;28;20205;-89
2021/07/05 05:49:35;;;;;;;77.00;32.10;;;17.50;99.90;;;;;;4974217;28;20703;-90
2021/07/05 05:52:01;;;;;;;68.07;30.73;;;17.50;99.90;;;;;;4973611;28;20677;-88
2021/07/05 05:54:26;;;;;;;64.65;30.17;;;17.50;99.90;;;;;;4973613;28;20206;-88
2021/07/05 05:56:53;;;;;;;61.85;29.83;;;17.70;99.90;;;;;;4972195;28;20245;-89
2021/07/05 05:59:19;;;;;;;68.22;30.08;;;17.70;99.90;;;;;;4972562;28;20186;-86
2021/07/05 06:01:51;;;;;;;51.92;28.23;;;17.80;99.90;;;;;;4973818;28;20186;-86
2021/07/05 06:04:18;;;;;;;59.45;30.45;;;17.80;99.90;;;;;;4972780;28;20640;-89
2021/07/05 06:06:44;;;;;;;61.72;30.27;;;17.80;99.90;;;;;;4973478;28;20190;-88
2021/07/05 06:09:10;;;;;;;55.53;29.80;;;17.90;99.90;;;;;;4973753;28;20211;-86
2021/07/05 06:11:37;;;;;;;60.13;29.35;;;;;;;;;;4956234;28;20218;-89
2021/07/05 06:14:04;;;;;;;51.15;25.42;;;18.00;99.90;;;;;;4972510;28;20186;-88
2021/07/05 06:16:31;;;;;;;59.17;28.15;;;18.10;99.90;;;;;;4972481;28;20249;-89
2021/07/05 06:18:56;;;;;;;56.58;27.25;;;18.10;99.90;;;;;;4956193;28;20658;-87
2021/07/05 06:21:22;;;;;;;52.40;25.40;;;18.20;99.90;;;;;;4973452;28;20182;-88
2021/07/05 06:23:48;;;;;;;52.17;28.50;;;18.30;99.90;;;;;;4973291;28;20198;-88
2021/07/05 06:26:15;;;;;;;54.50;28.70;;;18.40;99.90;;;;;;4956315;28;20280;-87
2021/07/05 06:28:41;;;;;;;53.30;27.50;;;18.40;99.90;;;;;;4972992;28;20667;-88
2021/07/05 06:31:07;;;;;;;47.30;25.13;;;18.40;99.90;;;;;;4973820;28;20182;-88
2021/07/05 06:33:32;;;;;;;47.92;24.98;;;18.50;99.90;;;;;;4972111;28;20538;-89
2021/07/05 06:35:59;;;;;;;44.08;24.10;;;18.50;99.90;;;;;;4972680;28;20715;-88
2021/07/05 06:38:24;;;;;;;47.22;26.02;;;18.60;99.90;;;;;;4972335;28;20170;-88
2021/07/05 06:40:52;;;;;;;42.50;25.27;;;18.60;99.90;;;;;;4955907;28;20234;-88
2021/07/05 06:43:18;;;;;;;49.13;25.45;;;18.70;99.90;;;;;;4973397;28;20175;-88
2021/07/05 06:45:44;;;;;;;46.85;24.80;;;18.80;99.90;;;;;;4971389;28;20659;-88
2021/07/05 06:48:11;;;;;;;39.60;24.50;;;19.00;99.90;;;;;;4973101;28;20674;-87
2021/07/05 06:50:38;;;;;;;41.42;24.02;;;18.90;99.90;;;;;;4971984;28;20634;-88
2021/07/05 06:53:05;;;;;;;42.20;22.95;;;18.90;99.90;;;;;;4976930;28;20198;-89
2021/07/05 06:55:31;;;;;;;37.22;22.30;;;19.00;99.90;;;;;;4975501;28;20253;-88
2021/07/05 06:57:57;;;;;;;40.55;22.88;;;19.00;99.90;;;;;;4974785;28;20652;-87
2021/07/05 07:00:25;;;;;;;27.40;18.38;;;19.10;99.90;;;;;;4975451;28;20182;-89
2021/07/05 07:02:51;;;;;;;26.63;17.35;;;19.10;99.90;;;;;;4976541;28;20179;-88
2021/07/05 07:05:19;;;;;;;23.10;15.77;;;19.10;99.90;;;;;;4975144;28;20198;-88
2021/07/05 07:07:47;;;;;;;19.40;14.23;;;19.20;99.90;;;;;;4974998;28;20213;-89
2021/07/05 07:10:14;;;;;;;21.88;14.07;;;19.20;99.90;;;;;;4976730;28;20182;-87
2021/07/05 07:12:42;;;;;;;19.52;13.43;;;19.30;99.90;;;;;;4975078;28;20178;-88
2021/07/05 07:15:09;;;;;;;15.45;13.02;;;19.40;99.90;;;;;;4975431;28;20269;-88
2021/07/05 07:17:39;;;;;;;17.35;12.45;;;19.40;99.90;;;;;;4976766;28;20656;-89
2021/07/05 07:20:10;;;;;;;21.67;12.90;;;19.50;99.90;;;;;;4959782;28;20646;-88
2021/07/05 07:22:37;;;;;;;15.50;12.65;;;19.60;99.90;;;;;;4976500;28;20166;-88
2021/07/05 07:25:05;;;;;;;17.30;12.90;;;19.60;99.90;;;;;;4976859;28;20264;-88
2021/07/05 07:27:30;;;;;;;17.90;12.48;;;19.80;99.90;;;;;;4975381;28;20322;-88
2021/07/05 07:29:56;;;;;;;18.38;11.95;;;19.90;99.90;;;;;;4959322;28;20269;-88
2021/07/05 07:32:21;;;;;;;16.20;11.27;;;20.00;99.90;;;;;;4977027;28;20175;-88
2021/07/05 07:34:47;;;;;;;14.00;11.02;;;20.10;99.90;;;;;;4975377;28;20182;-88
2021/07/05 07:37:13;;;;;;;15.25;10.98;;;20.10;99.90;;;;;;4942741;28;20748;-88
2021/07/05 07:39:48;;;;;;;14.43;11.38;;;;;;;;;;4976650;28;20182;-89
2021/07/05 07:42:14;;;;;;;12.82;9.77;;;20.40;99.90;;;;;;4974325;28;20186;-88
2021/07/05 07:44:40;;;;;;;15.15;10.20;;;20.50;99.90;;;;;;4973591;28;20170;-89
2021/07/05 07:47:06;;;;;;;11.80;9.23;;;20.60;99.90;;;;;;4974625;28;20210;-87
2021/07/05 07:49:33;;;;;;;10.73;8.68;;;20.80;99.90;;;;;;4975171;28;20265;-87
2021/07/05 07:51:59;;;;;;;10.15;8.73;;;20.80;99.90;;;;;;4973598;28;20264;-89
2021/07/05 07:54:25;;;;;;;9.43;8.43;;;20.90;99.90;;;;;;4957991;28;20253;-88
2021/07/05 07:56:51;;;;;;;9.68;8.68;;;21.00;99.90;;;;;;4974390;28;20594;-89
2021/07/05 07:59:17;;;;;;;9.38;8.30;;;21.00;99.90;;;;;;4975390;28;20538;-87
2021/07/05 08:01:43;;;;;;;9.82;7.88;;;21.00;99.90;;;;;;4975047;28;20189;-87
2021/07/05 08:04:09;;;;;;;10.90;9.27;;;21.00;99.90;;;;;;4958729;28;20209;-88
2021/07/05 08:06:35;;;;;;;11.85;8.23;;;21.00;99.90;;;;;;4959137;28;20202;-89
2021/07/05 08:09:03;;;;;;;10.20;8.23;;;21.00;99.90;;;;;;4974872;28;20179;-88
2021/07/05 08:11:29;;;;;;;10.10;8.02;;;21.00;99.90;;;;;;4975145;28;20590;-87
2021/07/05 08:13:55;;;;;;;8.18;7.38;;;21.20;99.90;;;;;;4975770;28;20182;-87
2021/07/05 08:16:21;;;;;;;6.45;5.85;;;21.40;99.90;;;;;;4958824;28;20210;-87
2021/07/05 08:18:46;;;;;;;8.45;6.90;;;21.70;99.90;;;;;;4976233;28;20221;-88
2021/07/05 08:21:12;;;;;;;12.80;6.55;;;21.80;99.90;;;;;;4976194;28;20206;-87
2021/07/05 08:23:38;;;;;;;11.55;6.88;;;22.00;99.90;;;;;;4975042;28;20249;-87
2021/07/05 08:26:04;;;;;;;10.27;6.65;;;22.20;99.90;;;;;;4975761;28;20702;-86
2021/07/05 08:28:30;;;;;;;7.70;6.90;;;22.40;99.90;;;;;;4976213;28;20170;-87
2021/07/05 08:30:57;;;;;;;10.55;6.28;;;22.40;99.90;;;;;;4974536;28;20257;-87
2021/07/05 08:33:23;;;;;;;12.35;6.80;;;22.60;99.90;;;;;;4974826;28;20186;-86
2021/07/05 08:35:49;;;;;;;8.38;5.80;;;22.70;99.90;;;;;;4973938;28;20214;-88
2021/07/05 08:38:16;;;;;;;6.70;5.85;;;22.80;99.90;;;;;;4976073;28;20639;-86
2021/07/05 08:40:41;;;;;;;8.57;6.10;;;22.90;99.90;;;;;;4975869;28;20261;-86
2021/07/05 08:43:08;;;;;;;8.98;5.90;;;22.90;99.90;;;;;;4975244;28;20289;-87
2021/07/05 08:45:35;;;;;;;9.25;6.70;;;22.80;99.90;;;;;;4975815;28;20274;-87
2021/07/05 08:48:03;;;;;;;6.82;6.10;;;22.80;99.90;;;;;;4975381;28;20660;-87
2021/07/05 08:50:29;;;;;;;7.57;6.10;;;23.00;99.90;;;;;;4974471;28;20554;-86
2021/07/05 08:52:56;;;;;;;9.93;6.40;;;23.10;99.90;;;;;;4974278;28;20274;-87
2021/07/05 08:55:28;;;;;;;8.38;5.10;;;23.20;99.90;;;;;;4974254;28;20189;-90
2021/07/05 08:57:54;;;;;;;5.50;4.95;;;23.20;99.90;;;;;;4974512;28;20629;-84
2021/07/05 09:00:28;;;;;;;7.22;5.50;;;23.30;99.90;;;;;;4975643;28;20655;-86
2021/07/05 09:02:56;;;;;;;6.60;5.88;;;23.20;99.90;;;;;;4974428;28;20636;-85
2021/07/05 09:05:22;;;;;;;8.00;5.53;;;23.00;99.90;;;;;;4977003;28;20178;-87
2021/07/05 09:08:02;;;;;;;6.65;6.00;;;23.00;99.90;;;;;;4973707;28;20686;-88
2021/07/05 09:10:48;;;;;;;7.55;5.82;;;22.90;99.90;;;;;;4972070;28;20214;-87
2021/07/05 09:13:17;;;;;;;6.68;5.97;;;22.80;99.90;;;;;;4971131;28;20191;-87
2021/07/05 09:15:49;;;;;;;8.02;5.38;;;22.70;99.90;;;;;;4972748;28;20297;-89
2021/07/05 09:18:32;;;;;;;7.82;5.90;;;22.60;99.90;;;;;;4972030;28;20265;-86
2021/07/05 09:21:15;;;;;;;6.97;5.53;;;22.70;99.90;;;;;;4973391;28;20182;-88
2021/07/05 09:23:45;;;;;;;10.88;6.00;;;22.60;99.90;;;;;;4973991;28;20547;-86
2021/07/05 09:26:22;;;;;;;6.68;5.30;;;22.60;99.90;;;;;;4973339;28;20187;-87
2021/07/05 09:28:52;;;;;;;6.82;5.97;;;22.50;99.90;;;;;;4975069;28;20253;-88
2021/07/05 09:31:33;;;;;;;6.20;5.60;;;22.50;99.90;;;;;;4974922;28;20178;-88
2021/07/05 09:33:59;;;;;;;11.75;6.03;;;22.50;99.90;;;;;;4973127;28;20189;-87
2021/07/05 09:36:26;;;;;;;7.20;5.75;;;22.50;99.90;;;;;;4973588;28;20250;-88
2021/07/05 09:38:52;;;;;;;11.85;5.68;;;22.50;99.90;;;;;;4973726;28;20190;-86
2021/07/05 09:41:34;;;;;;;9.23;5.90;;;22.50;99.90;;;;;;4973557;28;20214;-87
2021/07/05 09:44:09;;;;;;;6.18;5.55;;;22.50;99.90;;;;;;4973261;28;20178;-87
2021/07/05 09:46:46;;;;;;;7.35;5.57;;;22.60;99.90;;;;;;4974505;28;20233;-87
2021/07/05 09:49:28;;;;;;;6.57;5.65;;;22.60;99.90;;;;;;4974455;28;20254;-88
2021/07/05 09:52:32;;;;;;;10.25;6.20;;;22.80;99.90;;;;;;4974529;28;20558;-86
2021/07/05 09:55:00;;;;;;;12.00;6.28;;;22.90;99.90;;;;;;4971281;28;20276;-89
2021/07/05 09:57:39;;;;;;;8.43;6.68;;;22.90;99.90;;;;;;4973066;28;20555;-87
2021/07/05 10:00:08;;;;;;;9.20;6.88;;;23.10;99.90;;;;;;4972583;28;20310;-86
2021/07/05 10:02:37;;;;;;;8.15;6.40;;;23.40;99.90;;;;;;4974441;28;20182;-87
2021/07/05 10:05:13;;;;;;;10.13;5.88;;;23.50;99.90;;;;;;4972128;28;20174;-87
2021/07/05 10:07:38;;;;;;;9.02;6.40;;;23.60;99.90;;;;;;4956436;28;20190;-87
2021/07/05 10:10:13;;;;;;;11.75;6.15;;;23.50;99.90;;;;;;4955846;28;20193;-87
2021/07/05 10:12:39;;;;;;;9.85;6.10;;;23.40;99.90;;;;;;4972385;28;20182;-88
2021/07/05 10:15:10;;;;;;;10.32;7.22;;;23.50;99.90;;;;;;4971696;28;20384;-88
2021/07/05 10:17:42;;;;;;;8.90;6.70;;;23.50;99.90;;;;;;4969029;28;20701;-90
2021/07/05 10:20:11;;;;;;;7.38;6.00;;;24.20;99.90;;;;;;4970551;28;20181;-90
2021/07/05 10:22:42;;;;;;;8.02;6.55;;;24.40;99.90;;;;;;4968840;28;20206;-89
2021/07/05 10:25:08;;;;;;;8.82;6.50;;;24.50;99.90;;;;;;4981345;28;20674;-90
2021/07/05 10:27:35;;;;;;;9.23;6.18;;;24.70;99.90;;;;;;4974928;28;20190;-90
2021/07/05 10:30:04;;;;;;;5.10;4.55;;;25.10;99.90;;;;;;4975434;28;20183;-90
2021/07/05 10:32:32;;;;;;;5.93;4.65;;;25.10;99.90;;;;;;4975667;28;20174;-90
2021/07/05 10:34:58;;;;;;;10.00;5.78;;;25.20;99.90;;;;;;4973540;28;20178;-87
2021/07/05 10:37:36;;;;;;;8.77;6.53;;;26.60;99.90;;;;;;4975785;28;20236;-90
2021/07/05 10:40:05;;;;;;;8.00;5.45;;;25.00;99.90;;;;;;4974668;28;20179;-90
2021/07/05 10:42:32;;;;;;;8.25;5.50;;;24.80;99.90;;;;;;4976558;28;20253;-87
2021/07/05 10:44:59;;;;;;;6.80;4.88;;;24.60;99.90;;;;;;4975578;28;20182;-87
2021/07/05 10:47:54;;;;;;;7.32;4.50;;;24.40;99.90;;;;;;4976872;28;20217;-89
2021/07/05 10:50:42;;;;;;;6.50;4.45;;;24.20;99.90;;;;;;4975359;28;20182;-87
2021/07/05 10:53:10;;;;;;;8.20;4.28;;;24.20;99.90;;;;;;4975001;28;20177;-87
2021/07/05 10:55:42;;;;;;;7.47;4.47;;;24.20;99.90;;;;;;4975143;28;20183;-87
2021/07/05 10:58:22;;;;;;;6.95;4.85;;;24.20;99.90;;;;;;4976494;28;20186;-88
2021/07/05 11:00:52;;;;;;;7.07;4.68;;;24.20;99.90;;;;;;4974196;28;20674;-88
2021/07/05 11:03:36;;;;;;;7.40;5.78;;;24.20;99.90;;;;;;4976208;28;20258;-88
2021/07/05 11:06:08;;;;;;;5.82;4.65;;;24.40;99.90;;;;;;4974322;28;20174;-87
2021/07/05 11:08:49;;;;;;;6.60;5.47;;;24.70;99.90;;;;;;4975521;28;20285;-87
2021/07/05 11:11:26;;;;;;;5.47;4.93;;;25.10;99.90;;;;;;4975730;28;20166;-88
2021/07/05 11:14:15;;;;;;;5.90;4.93;;;25.50;99.90;;;;;;4974564;28;20187;-88
2021/07/05 11:17:09;;;;;;;10.90;6.68;;;25.30;99.90;;;;;;4975169;28;20697;-87
2021/07/05 11:19:39;;;;;;;5.68;4.93;;;25.40;99.90;;;;;;4975314;28;20702;-87
2021/07/05 11:22:20;;;;;;;5.82;4.75;;;25.60;99.90;;;;;;4974554;28;20204;-88
2021/07/05 11:24:57;;;;;;;5.95;4.88;;;25.80;99.90;;;;;;4976380;28;20624;-88
2021/07/05 11:27:35;;;;;;;7.53;5.40;;;25.80;99.90;;;;;;4973793;28;20170;-87
2021/07/05 11:30:36;;;;;;;7.60;5.25;;;25.90;99.90;;;;;;4973265;28;20187;-85
2021/07/05 11:33:04;;;;;;;6.10;4.43;;;25.80;99.90;;;;;;4976496;28;20168;-89
2021/07/05 11:35:59;;;;;;;6.50;4.72;;;25.70;99.90;;;;;;4974680;28;20233;-88
2021/07/05 11:38:26;;;;;;;12.32;5.03;;;25.30;99.90;;;;;;4971711;28;20198;-86
2021/07/05 11:40:56;;;;;;;8.30;4.82;;;25.20;99.90;;;;;;4976343;28;20178;-86
2021/07/05 11:43:51;;;;;;;5.95;4.90;;;25.10;99.90;;;;;;4973103;28;20190;-86
2021/07/05 11:46:29;;;;;;;8.35;4.65;;;25.10;99.90;;;;;;4973647;28;20237;-86
2021/07/05 11:49:06;;;;;;;7.63;4.20;;;25.20;99.90;;;;;;4974079;28;20183;-86
2021/07/05 11:51:36;;;;;;;6.65;4.50;;;25.40;99.90;;;;;;4974850;28;20209;-86
2021/07/05 11:54:18;;;;;;;5.18;4.43;;;25.50;99.90;;;;;;4971530;28;20652;-86
2021/07/05 11:56:52;;;;;;;4.40;3.42;;;25.70;99.90;;;;;;4972925;28;20541;-87
2021/07/05 11:59:36;;;;;;;9.90;4.22;;;25.90;99.90;;;;;;4972362;28;20166;-84
2021/07/05 12:02:14;;;;;;;6.47;4.70;;;25.80;99.90;;;;;;4974033;28;20260;-86
2021/07/05 12:04:42;;;;;;;10.18;4.28;;;25.80;99.90;;;;;;4975364;28;20173;-85
2021/07/05 12:07:13;;;;;;;8.57;3.53;;;26.00;99.90;;;;;;4975757;28;20190;-85
2021/07/05 12:09:39;;;;;;;8.38;4.28;;;26.20;99.90;;;;;;4975753;28;20166;-86
2021/07/05 12:12:09;;;;;;;6.03;4.40;;;26.30;99.90;;;;;;4975626;28;20203;-86
2021/07/05 12:14:35;;;;;;;4.65;4.20;;;26.20;99.90;;;;;;4975568;28;20186;-85
2021/07/05 12:17:03;;;;;;;5.05;4.55;;;26.20;99.90;;;;;;4975382;28;20695;-85
2021/07/05 12:19:30;;;;;;;10.38;3.70;;;26.10;99.90;;;;;;4975106;28;20289;-87
2021/07/05 12:21:59;;;;;;;12.18;6.45;;;26.20;99.90;;;;;;4974425;28;20187;-86
2021/07/05 12:24:30;;;;;;;12.60;4.65;;;26.30;99.90;;;;;;4973385;28;20214;-87
2021/07/05 12:27:07;;;;;;;7.60;5.18;;;26.30;99.90;;;;;;4974753;28;20179;-88
2021/07/05 12:29:44;;;;;;;7.40;5.15;;;26.30;99.90;;;;;;4973532;28;20185;-87
2021/07/05 12:32:16;;;;;;;7.18;6.47;;;26.20;99.90;;;;;;4973377;28;20174;-86
2021/07/05 12:35:01;;;;;;;8.55;5.55;;;26.20;99.90;;;;;;4975394;28;20262;-87
2021/07/05 12:37:33;;;;;;;17.17;6.40;;;26.20;99.90;;;;;;4972606;28;20250;-87
2021/07/05 12:39:58;;;;;;;21.15;10.65;;;26.10;99.90;;;;;;4974048;28;20210;-87
2021/07/05 12:42:44;;;;;;;17.48;9.60;;;26.10;99.90;;;;;;4977869;28;20218;-87
2021/07/05 12:45:36;;;;;;;7.80;5.93;;;26.00;99.90;;;;;;4973692;28;20171;-87
2021/07/05 12:48:17;;;;;;;9.68;5.40;;;26.00;99.90;;;;;;4976452;28;20178;-88